sensor_id;sensor_type;location;lat;lon;timestamp;pressure;altitude;pressure_sealevel;temperature;humidity
58092;BME280;43896;48.178;11.578;2023-02-18T00:00:21;96724.94;;;12.00;63.74
58092;BME280;43896;48.178;11.578;2023-02-18T00:02:47;96718.56;;;11.93;63.71
58092;BME280;43896;48.178;11.578;2023-02-18T00:05:13;96731.59;;;11.94;63.77
58092;BME280;43896;48.178;11.578;2023-02-18T00:07:40;96718.47;;;11.75;64.35
58092;BME280;43896;48.178;11.578;2023-02-18T00:10:08;96722.31;;;11.90;63.97
58092;BME280;43896;48.178;11.578;2023-02-18T00:12:33;96731.84;;;12.01;64.00
58092;BME280;43896;48.178;11.578;2023-02-18T00:14:59;96719.81;;;11.98;63.60
58092;BME280;43896;48.178;11.578;2023-02-18T00:17:24;96721.44;;;11.99;63.89
58092;BME280;43896;48.178;11.578;2023-02-18T00:19:50;96724.13;;;11.90;64.36
58092;BME280;43896;48.178;11.578;2023-02-18T00:22:15;96721.38;;;11.81;64.77
58092;BME280;43896;48.178;11.578;2023-02-18T00:24:40;96704.13;;;11.87;64.60
58092;BME280;43896;48.178;11.578;2023-02-18T00:27:06;96688.91;;;11.81;64.05
58092;BME280;43896;48.178;11.578;2023-02-18T00:29:31;96694.88;;;11.83;64.50
58092;BME280;43896;48.178;11.578;2023-02-18T00:31:57;96686.59;;;11.68;64.83
58092;BME280;43896;48.178;11.578;2023-02-18T00:34:22;96704.88;;;11.79;64.75
58092;BME280;43896;48.178;11.578;2023-02-18T00:36:47;96689.59;;;11.83;64.38
58092;BME280;43896;48.178;11.578;2023-02-18T00:39:13;96689.66;;;11.63;64.97
58092;BME280;43896;48.178;11.578;2023-02-18T00:41:38;96709.03;;;11.72;65.04
58092;BME280;43896;48.178;11.578;2023-02-18T00:44:04;96708.03;;;11.83;64.73
58092;BME280;43896;48.178;11.578;2023-02-18T00:46:30;96706.97;;;11.76;65.08
58092;BME280;43896;48.178;11.578;2023-02-18T00:48:56;96696.72;;;11.73;65.25
58092;BME280;43896;48.178;11.578;2023-02-18T00:51:23;96697.06;;;11.50;65.68
58092;BME280;43896;48.178;11.578;2023-02-18T00:53:50;96693.28;;;11.62;65.67
58092;BME280;43896;48.178;11.578;2023-02-18T00:56:15;96708.28;;;11.42;65.97
58092;BME280;43896;48.178;11.578;2023-02-18T00:58:40;96708.00;;;11.55;65.81
58092;BME280;43896;48.178;11.578;2023-02-18T01:01:06;96713.22;;;11.65;65.60
58092;BME280;43896;48.178;11.578;2023-02-18T01:03:32;96697.53;;;11.73;65.09
58092;BME280;43896;48.178;11.578;2023-02-18T01:05:59;96707.38;;;11.81;64.89
58092;BME280;43896;48.178;11.578;2023-02-18T01:08:24;96696.72;;;11.73;65.31
58092;BME280;43896;48.178;11.578;2023-02-18T01:10:53;96692.41;;;11.72;65.14
58092;BME280;43896;48.178;11.578;2023-02-18T01:13:19;96704.41;;;11.84;64.91
58092;BME280;43896;48.178;11.578;2023-02-18T01:15:44;96706.50;;;11.80;64.94
58092;BME280;43896;48.178;11.578;2023-02-18T01:18:11;96711.53;;;11.74;65.63
58092;BME280;43896;48.178;11.578;2023-02-18T01:20:38;96697.25;;;11.76;65.46
58092;BME280;43896;48.178;11.578;2023-02-18T01:23:04;96694.47;;;11.78;65.09
58092;BME280;43896;48.178;11.578;2023-02-18T01:25:30;96670.66;;;11.60;65.69
58092;BME280;43896;48.178;11.578;2023-02-18T01:27:56;96694.22;;;11.61;66.23
58092;BME280;43896;48.178;11.578;2023-02-18T01:30:22;96680.94;;;11.53;65.67
58092;BME280;43896;48.178;11.578;2023-02-18T01:32:47;96683.00;;;11.69;65.34
58092;BME280;43896;48.178;11.578;2023-02-18T01:35:15;96701.53;;;11.77;65.57
58092;BME280;43896;48.178;11.578;2023-02-18T01:37:41;96677.28;;;11.74;65.47
58092;BME280;43896;48.178;11.578;2023-02-18T01:40:10;96688.47;;;11.86;64.84
58092;BME280;43896;48.178;11.578;2023-02-18T01:42:35;96690.84;;;11.79;65.47
58092;BME280;43896;48.178;11.578;2023-02-18T01:47:58;96689.75;;;11.81;65.65
58092;BME280;43896;48.178;11.578;2023-02-18T01:50:25;96685.19;;;11.74;65.71
58092;BME280;43896;48.178;11.578;2023-02-18T01:52:51;96692.38;;;11.81;65.78
58092;BME280;43896;48.178;11.578;2023-02-18T01:55:16;96676.44;;;11.73;65.56
58092;BME280;43896;48.178;11.578;2023-02-18T01:57:42;96676.56;;;11.81;65.35
58092;BME280;43896;48.178;11.578;2023-02-18T02:00:11;96693.19;;;11.82;65.51
58092;BME280;43896;48.178;11.578;2023-02-18T02:02:41;96686.13;;;11.82;65.65
58092;BME280;43896;48.178;11.578;2023-02-18T02:05:07;96682.06;;;11.60;66.15
58092;BME280;43896;48.178;11.578;2023-02-18T02:07:32;96688.25;;;11.69;66.16
58092;BME280;43896;48.178;11.578;2023-02-18T02:09:58;96678.97;;;11.65;66.48
58092;BME280;43896;48.178;11.578;2023-02-18T02:12:29;96682.53;;;11.74;66.27
58092;BME280;43896;48.178;11.578;2023-02-18T02:26:47;96660.09;;;11.70;66.29
58092;BME280;43896;48.178;11.578;2023-02-18T02:32:28;96665.91;;;11.73;66.51
58092;BME280;43896;48.178;11.578;2023-02-18T02:37:59;96669.41;;;11.64;66.83
58092;BME280;43896;48.178;11.578;2023-02-18T02:40:35;96665.66;;;11.67;66.98
58092;BME280;43896;48.178;11.578;2023-02-18T02:43:28;96658.44;;;11.69;66.86
58092;BME280;43896;48.178;11.578;2023-02-18T02:46:10;96658.50;;;11.49;67.25
58092;BME280;43896;48.178;11.578;2023-02-18T02:54:18;96648.38;;;11.82;66.19
58092;BME280;43896;48.178;11.578;2023-02-18T02:56:44;96641.94;;;11.67;67.06
58092;BME280;43896;48.178;11.578;2023-02-18T02:59:14;96616.13;;;11.70;66.54
58092;BME280;43896;48.178;11.578;2023-02-18T03:01:45;96641.63;;;11.79;66.60
58092;BME280;43896;48.178;11.578;2023-02-18T03:04:30;96644.69;;;11.75;67.26
58092;BME280;43896;48.178;11.578;2023-02-18T03:15:35;96633.41;;;11.82;67.26
58092;BME280;43896;48.178;11.578;2023-02-18T03:20:55;96630.47;;;11.86;67.32
58092;BME280;43896;48.178;11.578;2023-02-18T03:23:25;96622.56;;;11.86;66.94
58092;BME280;43896;48.178;11.578;2023-02-18T03:25:51;96636.84;;;11.93;66.75
58092;BME280;43896;48.178;11.578;2023-02-18T03:28:19;96642.50;;;11.98;66.74
58092;BME280;43896;48.178;11.578;2023-02-18T03:30:50;96642.38;;;11.99;66.60
58092;BME280;43896;48.178;11.578;2023-02-18T03:33:22;96636.16;;;11.91;67.22
58092;BME280;43896;48.178;11.578;2023-02-18T03:35:49;96639.13;;;11.78;67.18
58092;BME280;43896;48.178;11.578;2023-02-18T03:38:23;96619.91;;;11.68;67.03
58092;BME280;43896;48.178;11.578;2023-02-18T03:40:50;96635.47;;;11.89;66.96
58092;BME280;43896;48.178;11.578;2023-02-18T03:43:16;96632.28;;;11.85;67.31
58092;BME280;43896;48.178;11.578;2023-02-18T03:45:42;96642.97;;;11.93;66.84
58092;BME280;43896;48.178;11.578;2023-02-18T03:48:07;96634.09;;;11.85;67.36
58092;BME280;43896;48.178;11.578;2023-02-18T03:50:33;96633.56;;;11.81;67.12
58092;BME280;43896;48.178;11.578;2023-02-18T03:52:58;96618.75;;;11.70;67.20
58092;BME280;43896;48.178;11.578;2023-02-18T03:55:23;96616.22;;;11.78;67.08
58092;BME280;43896;48.178;11.578;2023-02-18T03:57:49;96624.00;;;11.80;66.83
58092;BME280;43896;48.178;11.578;2023-02-18T04:00:14;96630.38;;;11.77;67.29
58092;BME280;43896;48.178;11.578;2023-02-18T04:02:40;96630.44;;;11.68;67.26
58092;BME280;43896;48.178;11.578;2023-02-18T04:05:06;96637.75;;;11.74;67.40
58092;BME280;43896;48.178;11.578;2023-02-18T04:07:32;96615.94;;;11.54;67.41
58092;BME280;43896;48.178;11.578;2023-02-18T04:09:57;96630.38;;;11.77;67.14
58092;BME280;43896;48.178;11.578;2023-02-18T04:12:22;96625.16;;;11.68;66.99
58092;BME280;43896;48.178;11.578;2023-02-18T04:14:48;96610.75;;;11.62;67.51
58092;BME280;43896;48.178;11.578;2023-02-18T04:17:13;96590.84;;;11.50;67.74
58092;BME280;43896;48.178;11.578;2023-02-18T04:19:38;96608.84;;;11.54;67.30
58092;BME280;43896;48.178;11.578;2023-02-18T04:22:04;96622.44;;;11.50;68.00
58092;BME280;43896;48.178;11.578;2023-02-18T04:24:29;96639.31;;;11.67;67.50
58092;BME280;43896;48.178;11.578;2023-02-18T04:26:54;96626.41;;;11.63;68.04
58092;BME280;43896;48.178;11.578;2023-02-18T04:29:19;96619.81;;;11.50;68.20
58092;BME280;43896;48.178;11.578;2023-02-18T04:31:45;96618.94;;;11.21;69.03
58092;BME280;43896;48.178;11.578;2023-02-18T04:34:10;96611.31;;;11.28;68.83
58092;BME280;43896;48.178;11.578;2023-02-18T04:36:35;96643.66;;;11.48;68.75
58092;BME280;43896;48.178;11.578;2023-02-18T04:39:01;96636.31;;;11.52;68.72
58092;BME280;43896;48.178;11.578;2023-02-18T04:41:26;96625.88;;;11.60;68.24
58092;BME280;43896;48.178;11.578;2023-02-18T04:43:51;96631.41;;;11.67;67.73
58092;BME280;43896;48.178;11.578;2023-02-18T04:46:17;96621.22;;;11.44;68.33
58092;BME280;43896;48.178;11.578;2023-02-18T04:48:42;96643.25;;;11.53;68.12
58092;BME280;43896;48.178;11.578;2023-02-18T04:51:08;96627.53;;;11.23;68.84
58092;BME280;43896;48.178;11.578;2023-02-18T04:53:33;96623.22;;;11.32;68.76
58092;BME280;43896;48.178;11.578;2023-02-18T04:55:59;96646.28;;;11.58;67.80
58092;BME280;43896;48.178;11.578;2023-02-18T04:58:24;96631.19;;;11.50;67.92
58092;BME280;43896;48.178;11.578;2023-02-18T05:00:50;96651.00;;;11.54;68.23
58092;BME280;43896;48.178;11.578;2023-02-18T05:03:15;96648.63;;;11.61;67.52
58092;BME280;43896;48.178;11.578;2023-02-18T05:05:41;96638.53;;;11.47;68.00
58092;BME280;43896;48.178;11.578;2023-02-18T05:08:07;96634.41;;;11.44;68.21
58092;BME280;43896;48.178;11.578;2023-02-18T05:10:33;96645.44;;;11.57;67.83
58092;BME280;43896;48.178;11.578;2023-02-18T05:12:59;96628.25;;;11.53;68.10
58092;BME280;43896;48.178;11.578;2023-02-18T05:15:24;96608.84;;;11.54;67.28
58092;BME280;43896;48.178;11.578;2023-02-18T05:17:49;96615.41;;;11.50;67.45
58092;BME280;43896;48.178;11.578;2023-02-18T05:20:15;96623.38;;;11.58;67.44
58092;BME280;43896;48.178;11.578;2023-02-18T05:22:40;96630.72;;;11.64;67.31
58092;BME280;43896;48.178;11.578;2023-02-18T05:25:06;96636.28;;;11.61;67.17
58092;BME280;43896;48.178;11.578;2023-02-18T05:27:31;96613.72;;;11.49;67.18
58092;BME280;43896;48.178;11.578;2023-02-18T05:29:57;96615.41;;;11.50;67.83
58092;BME280;43896;48.178;11.578;2023-02-18T05:32:23;96593.22;;;11.43;67.22
58092;BME280;43896;48.178;11.578;2023-02-18T05:34:48;96616.25;;;11.41;67.69
58092;BME280;43896;48.178;11.578;2023-02-18T05:37:13;96618.88;;;11.41;67.53
58092;BME280;43896;48.178;11.578;2023-02-18T05:39:40;96619.13;;;11.48;67.21
58092;BME280;43896;48.178;11.578;2023-02-18T05:42:05;96609.41;;;11.48;67.32
58092;BME280;43896;48.178;11.578;2023-02-18T05:44:31;96608.28;;;11.60;67.04
58092;BME280;43896;48.178;11.578;2023-02-18T05:46:59;96625.38;;;11.47;67.28
58092;BME280;43896;48.178;11.578;2023-02-18T05:49:25;96608.75;;;11.46;66.81
58092;BME280;43896;48.178;11.578;2023-02-18T05:51:51;96620.84;;;11.39;67.13
58092;BME280;43896;48.178;11.578;2023-02-18T05:54:16;96614.41;;;11.51;66.99
58092;BME280;43896;48.178;11.578;2023-02-18T05:56:41;96626.03;;;11.58;66.95
58092;BME280;43896;48.178;11.578;2023-02-18T05:59:07;96591.06;;;11.29;67.12
58092;BME280;43896;48.178;11.578;2023-02-18T06:01:32;96600.28;;;11.52;66.28
58092;BME280;43896;48.178;11.578;2023-02-18T06:03:57;96603.75;;;11.43;66.87
58092;BME280;43896;48.178;11.578;2023-02-18T06:06:23;96609.03;;;11.43;66.81
58092;BME280;43896;48.178;11.578;2023-02-18T06:08:48;96599.03;;;11.47;66.57
58092;BME280;43896;48.178;11.578;2023-02-18T06:11:13;96616.66;;;11.46;66.55
58092;BME280;43896;48.178;11.578;2023-02-18T06:13:39;96621.50;;;11.51;66.90
58092;BME280;43896;48.178;11.578;2023-02-18T06:16:04;96619.53;;;11.53;66.61
58092;BME280;43896;48.178;11.578;2023-02-18T06:18:30;96630.06;;;11.53;66.06
58092;BME280;43896;48.178;11.578;2023-02-18T06:20:55;96610.94;;;11.51;66.10
58092;BME280;43896;48.178;11.578;2023-02-18T06:23:20;96621.63;;;11.49;65.89
58092;BME280;43896;48.178;11.578;2023-02-18T06:25:47;96622.72;;;11.56;65.70
58092;BME280;43896;48.178;11.578;2023-02-18T06:28:13;96637.69;;;11.56;66.19
58092;BME280;43896;48.178;11.578;2023-02-18T06:30:39;96634.47;;;11.62;65.99
58092;BME280;43896;48.178;11.578;2023-02-18T06:33:04;96641.25;;;11.64;66.00
58092;BME280;43896;48.178;11.578;2023-02-18T06:35:30;96632.06;;;11.69;65.31
58092;BME280;43896;48.178;11.578;2023-02-18T06:37:56;96633.34;;;11.64;65.16
58092;BME280;43896;48.178;11.578;2023-02-18T06:40:21;96631.28;;;11.58;65.61
58092;BME280;43896;48.178;11.578;2023-02-18T06:42:47;96636.81;;;11.65;64.80
58092;BME280;43896;48.178;11.578;2023-02-18T06:45:13;96646.81;;;11.61;65.80
58092;BME280;43896;48.178;11.578;2023-02-18T06:47:38;96615.09;;;11.53;64.66
58092;BME280;43896;48.178;11.578;2023-02-18T06:50:04;96631.00;;;11.61;64.89
58092;BME280;43896;48.178;11.578;2023-02-18T06:52:29;96615.47;;;11.58;64.31
58092;BME280;43896;48.178;11.578;2023-02-18T06:54:57;96617.53;;;11.64;64.06
58092;BME280;43896;48.178;11.578;2023-02-18T06:57:23;96615.31;;;11.70;64.42
58092;BME280;43896;48.178;11.578;2023-02-18T06:59:48;96629.00;;;11.73;63.90
58092;BME280;43896;48.178;11.578;2023-02-18T07:02:13;96593.44;;;11.59;63.86
58092;BME280;43896;48.178;11.578;2023-02-18T07:04:39;96616.88;;;11.62;63.77
58092;BME280;43896;48.178;11.578;2023-02-18T07:07:05;96623.47;;;11.76;63.72
58092;BME280;43896;48.178;11.578;2023-02-18T07:09:30;96608.31;;;11.78;63.59
58092;BME280;43896;48.178;11.578;2023-02-18T07:11:55;96628.94;;;11.93;63.23
58092;BME280;43896;48.178;11.578;2023-02-18T07:14:21;96617.44;;;11.84;63.30
58092;BME280;43896;48.178;11.578;2023-02-18T07:16:48;96618.47;;;11.73;63.80
58092;BME280;43896;48.178;11.578;2023-02-18T07:19:13;96616.03;;;11.62;63.96
58092;BME280;43896;48.178;11.578;2023-02-18T07:21:39;96620.19;;;11.64;63.84
58092;BME280;43896;48.178;11.578;2023-02-18T07:24:04;96608.06;;;11.72;63.50
58092;BME280;43896;48.178;11.578;2023-02-18T07:26:30;96604.72;;;11.79;63.05
58092;BME280;43896;48.178;11.578;2023-02-18T07:28:55;96626.75;;;11.88;63.50
58092;BME280;43896;48.178;11.578;2023-02-18T07:31:20;96642.72;;;11.77;63.34
58092;BME280;43896;48.178;11.578;2023-02-18T07:33:46;96610.16;;;11.78;62.98
58092;BME280;43896;48.178;11.578;2023-02-18T07:36:11;96614.53;;;11.87;62.97
58092;BME280;43896;48.178;11.578;2023-02-18T07:38:36;96604.53;;;11.91;62.90
58092;BME280;43896;48.178;11.578;2023-02-18T07:41:02;96592.03;;;11.93;62.75
58092;BME280;43896;48.178;11.578;2023-02-18T07:43:27;96600.38;;;11.88;63.06
58092;BME280;43896;48.178;11.578;2023-02-18T07:45:52;96622.66;;;12.04;62.72
58092;BME280;43896;48.178;11.578;2023-02-18T07:48:17;96608.09;;;11.99;62.33
58092;BME280;43896;48.178;11.578;2023-02-18T07:50:44;96611.13;;;12.05;62.82
58092;BME280;43896;48.178;11.578;2023-02-18T07:53:11;96616.47;;;11.95;62.61
58092;BME280;43896;48.178;11.578;2023-02-18T07:55:36;96610.72;;;11.99;62.59
58092;BME280;43896;48.178;11.578;2023-02-18T07:58:28;96598.69;;;11.97;62.70
58092;BME280;43896;48.178;11.578;2023-02-18T08:00:54;96611.88;;;11.97;62.89
58092;BME280;43896;48.178;11.578;2023-02-18T08:03:25;96605.50;;;12.17;62.10
58092;BME280;43896;48.178;11.578;2023-02-18T08:05:51;96592.31;;;12.35;61.80
58092;BME280;43896;48.178;11.578;2023-02-18T08:08:20;96592.19;;;12.55;61.15
58092;BME280;43896;48.178;11.578;2023-02-18T08:10:48;96587.03;;;12.35;61.43
58092;BME280;43896;48.178;11.578;2023-02-18T08:13:14;96573.41;;;12.40;61.37
58092;BME280;43896;48.178;11.578;2023-02-18T08:15:40;96570.28;;;12.63;60.85
58092;BME280;43896;48.178;11.578;2023-02-18T08:18:06;96552.22;;;12.50;61.00
58092;BME280;43896;48.178;11.578;2023-02-18T08:20:36;96580.09;;;12.70;60.37
58092;BME280;43896;48.178;11.578;2023-02-18T08:23:02;96588.72;;;12.81;60.19
58092;BME280;43896;48.178;11.578;2023-02-18T08:25:27;96574.31;;;12.93;59.38
58092;BME280;43896;48.178;11.578;2023-02-18T08:27:52;96578.06;;;13.08;59.17
58092;BME280;43896;48.178;11.578;2023-02-18T08:30:18;96587.31;;;13.12;59.21
58092;BME280;43896;48.178;11.578;2023-02-18T08:32:43;96567.84;;;13.40;57.96
58092;BME280;43896;48.178;11.578;2023-02-18T08:35:10;96564.09;;;13.50;58.10
58092;BME280;43896;48.178;11.578;2023-02-18T08:37:36;96554.19;;;13.53;57.43
58092;BME280;43896;48.178;11.578;2023-02-18T08:40:02;96555.75;;;13.63;57.01
58092;BME280;43896;48.178;11.578;2023-02-18T08:42:28;96544.28;;;13.46;57.33
58092;BME280;43896;48.178;11.578;2023-02-18T08:44:53;96546.47;;;13.59;56.59
58092;BME280;43896;48.178;11.578;2023-02-18T08:47:18;96533.41;;;13.58;56.93
58092;BME280;43896;48.178;11.578;2023-02-18T08:49:43;96543.34;;;13.64;56.62
58092;BME280;43896;48.178;11.578;2023-02-18T08:52:09;96550.84;;;13.34;57.08
58092;BME280;43896;48.178;11.578;2023-02-18T08:54:34;96554.53;;;13.49;56.94
58092;BME280;43896;48.178;11.578;2023-02-18T08:56:59;96533.94;;;13.69;57.06
58092;BME280;43896;48.178;11.578;2023-02-18T08:59:25;96546.66;;;13.66;56.72
58092;BME280;43896;48.178;11.578;2023-02-18T09:01:51;96548.31;;;13.67;56.94
58092;BME280;43896;48.178;11.578;2023-02-18T09:04:16;96539.84;;;13.55;57.18
58092;BME280;43896;48.178;11.578;2023-02-18T09:06:42;96534.31;;;13.83;56.69
58092;BME280;43896;48.178;11.578;2023-02-18T09:09:07;96536.31;;;13.81;56.58
58092;BME280;43896;48.178;11.578;2023-02-18T09:11:35;96544.22;;;13.81;56.46
58092;BME280;43896;48.178;11.578;2023-02-18T09:14:00;96535.75;;;13.69;56.65
58092;BME280;43896;48.178;11.578;2023-02-18T09:16:27;96533.50;;;13.82;56.56
58092;BME280;43896;48.178;11.578;2023-02-18T09:18:54;96528.41;;;13.89;55.91
58092;BME280;43896;48.178;11.578;2023-02-18T09:21:19;96550.13;;;14.25;55.25
58092;BME280;43896;48.178;11.578;2023-02-18T09:23:45;96540.19;;;14.36;54.60
58092;BME280;43896;48.178;11.578;2023-02-18T09:26:13;96505.47;;;14.39;54.26
58092;BME280;43896;48.178;11.578;2023-02-18T09:28:38;96530.28;;;14.62;54.04
58092;BME280;43896;48.178;11.578;2023-02-18T09:31:12;96536.06;;;14.17;54.45
58092;BME280;43896;48.178;11.578;2023-02-18T09:33:40;96562.53;;;14.50;54.30
58092;BME280;43896;48.178;11.578;2023-02-18T09:36:06;96556.91;;;14.36;54.52
58092;BME280;43896;48.178;11.578;2023-02-18T09:38:32;96528.94;;;14.17;54.67
58092;BME280;43896;48.178;11.578;2023-02-18T09:40:59;96530.84;;;13.91;55.36
58092;BME280;43896;48.178;11.578;2023-02-18T09:43:39;96536.53;;;14.12;55.04
58092;BME280;43896;48.178;11.578;2023-02-18T09:46:18;96532.41;;;14.51;53.74
58092;BME280;43896;48.178;11.578;2023-02-18T09:48:45;96504.47;;;14.48;53.75
58092;BME280;43896;48.178;11.578;2023-02-18T09:51:13;96513.09;;;14.67;53.30
58092;BME280;43896;48.178;11.578;2023-02-18T09:53:41;96527.81;;;14.77;53.29
58092;BME280;43896;48.178;11.578;2023-02-18T09:56:11;96526.97;;;14.85;53.18
58092;BME280;43896;48.178;11.578;2023-02-18T09:58:38;96505.28;;;14.81;52.59
58092;BME280;43896;48.178;11.578;2023-02-18T10:01:19;96498.69;;;14.69;53.12
58092;BME280;43896;48.178;11.578;2023-02-18T10:03:46;96511.91;;;15.42;51.61
58092;BME280;43896;48.178;11.578;2023-02-18T10:06:16;96487.81;;;15.28;51.21
58092;BME280;43896;48.178;11.578;2023-02-18T10:08:44;96499.31;;;15.83;50.58
58092;BME280;43896;48.178;11.578;2023-02-18T10:11:14;96496.13;;;15.56;51.17
58092;BME280;43896;48.178;11.578;2023-02-18T10:13:41;96476.47;;;15.82;50.65
58092;BME280;43896;48.178;11.578;2023-02-18T10:16:08;96468.47;;;15.51;51.22
58092;BME280;43896;48.178;11.578;2023-02-18T10:18:42;96472.47;;;16.09;49.86
58092;BME280;43896;48.178;11.578;2023-02-18T10:21:10;96478.28;;;15.82;49.99
58092;BME280;43896;48.178;11.578;2023-02-18T10:23:39;96467.59;;;15.59;50.38
58092;BME280;43896;48.178;11.578;2023-02-18T10:26:10;96461.34;;;15.12;51.67
58092;BME280;43896;48.178;11.578;2023-02-18T10:28:36;96460.78;;;15.25;51.48
58092;BME280;43896;48.178;11.578;2023-02-18T10:31:07;96466.22;;;15.31;51.50
58092;BME280;43896;48.178;11.578;2023-02-18T10:43:01;96456.81;;;15.29;51.41
58092;BME280;43896;48.178;11.578;2023-02-18T10:45:08;96430.03;;;15.15;51.89
58092;BME280;43896;48.178;11.578;2023-02-18T10:47:56;96430.09;;;15.38;51.25
58092;BME280;43896;48.178;11.578;2023-02-18T10:50:29;96428.59;;;15.67;50.57
58092;BME280;43896;48.178;11.578;2023-02-18T10:53:00;96417.88;;;15.92;49.92
58092;BME280;43896;48.178;11.578;2023-02-18T10:55:37;96414.38;;;16.15;49.36
58092;BME280;43896;48.178;11.578;2023-02-18T10:58:03;96407.19;;;16.38;48.75
58092;BME280;43896;48.178;11.578;2023-02-18T11:00:34;96396.81;;;16.13;48.87
58092;BME280;43896;48.178;11.578;2023-02-18T11:03:15;96395.16;;;16.50;48.01
58092;BME280;43896;48.178;11.578;2023-02-18T11:05:43;96394.28;;;16.50;47.97
58092;BME280;43896;48.178;11.578;2023-02-18T11:08:15;96353.00;;;16.33;48.36
58092;BME280;43896;48.178;11.578;2023-02-18T11:10:43;96365.94;;;16.80;47.61
58092;BME280;43896;48.178;11.578;2023-02-18T11:13:12;96346.63;;;16.86;47.42
58092;BME280;43896;48.178;11.578;2023-02-18T11:15:53;96363.16;;;16.59;47.18
58092;BME280;43896;48.178;11.578;2023-02-18T11:20:56;96370.41;;;16.65;46.78
58092;BME280;43896;48.178;11.578;2023-02-18T11:23:22;96372.88;;;16.52;46.45
58092;BME280;43896;48.178;11.578;2023-02-18T11:28:55;96368.72;;;16.87;46.58
58092;BME280;43896;48.178;11.578;2023-02-18T11:31:22;96378.47;;;16.72;46.78
58092;BME280;43896;48.178;11.578;2023-02-18T11:33:57;96363.84;;;16.91;46.04
58092;BME280;43896;48.178;11.578;2023-02-18T11:36:29;96368.22;;;16.98;45.93
58092;BME280;43896;48.178;11.578;2023-02-18T11:39:00;96373.94;;;16.95;45.84
58092;BME280;43896;48.178;11.578;2023-02-18T11:41:37;96363.09;;;16.52;46.11
58092;BME280;43896;48.178;11.578;2023-02-18T11:44:07;96351.16;;;16.18;47.26
58092;BME280;43896;48.178;11.578;2023-02-18T11:46:55;96357.97;;;15.98;47.42
58092;BME280;43896;48.178;11.578;2023-02-18T11:49:21;96364.84;;;16.07;47.68
58092;BME280;43896;48.178;11.578;2023-02-18T11:51:48;96349.56;;;15.94;48.41
58092;BME280;43896;48.178;11.578;2023-02-18T11:54:28;96355.09;;;16.07;47.69
58092;BME280;43896;48.178;11.578;2023-02-18T11:56:57;96349.81;;;16.37;47.47
58092;BME280;43896;48.178;11.578;2023-02-18T11:59:24;96338.25;;;16.15;47.53
58092;BME280;43896;48.178;11.578;2023-02-18T12:01:56;96336.50;;;16.07;47.35
58092;BME280;43896;48.178;11.578;2023-02-18T12:04:36;96334.97;;;15.90;47.84
58092;BME280;43896;48.178;11.578;2023-02-18T12:09:46;96315.66;;;15.58;47.77
58092;BME280;43896;48.178;11.578;2023-02-18T12:12:26;96348.53;;;15.49;47.87
58092;BME280;43896;48.178;11.578;2023-02-18T12:14:54;96324.59;;;15.57;47.67
58092;BME280;43896;48.178;11.578;2023-02-18T12:17:30;96325.25;;;15.59;47.88
58092;BME280;43896;48.178;11.578;2023-02-18T12:22:48;96316.13;;;15.62;48.26
58092;BME280;43896;48.178;11.578;2023-02-18T12:28:07;96299.13;;;15.56;48.39
58092;BME280;43896;48.178;11.578;2023-02-18T12:36:46;96285.91;;;15.48;48.69
58092;BME280;43896;48.178;11.578;2023-02-18T12:39:00;96295.63;;;15.55;48.78
58092;BME280;43896;48.178;11.578;2023-02-18T12:44:30;96313.91;;;15.27;48.87
58092;BME280;43896;48.178;11.578;2023-02-18T12:52:46;96280.25;;;15.28;49.47
58092;BME280;43896;48.178;11.578;2023-02-18T13:09:09;96277.81;;;15.87;48.70
58092;BME280;43896;48.178;11.578;2023-02-18T13:14:21;96275.63;;;15.91;48.49
58092;BME280;43896;48.178;11.578;2023-02-18T13:16:50;96269.16;;;16.08;47.60
58092;BME280;43896;48.178;11.578;2023-02-18T13:19:18;96272.19;;;16.20;47.37
58092;BME280;43896;48.178;11.578;2023-02-18T13:21:47;96231.28;;;16.00;46.80
58092;BME280;43896;48.178;11.578;2023-02-18T13:24:21;96264.38;;;15.89;47.50
58092;BME280;43896;48.178;11.578;2023-02-18T13:26:52;96275.84;;;16.04;46.80
58092;BME280;43896;48.178;11.578;2023-02-18T13:29:34;96271.91;;;16.30;46.52
58092;BME280;43896;48.178;11.578;2023-02-18T13:32:16;96259.28;;;16.47;46.11
58092;BME280;43896;48.178;11.578;2023-02-18T13:34:59;96264.31;;;16.27;46.61
58092;BME280;43896;48.178;11.578;2023-02-18T13:37:40;96247.72;;;15.57;47.87
58092;BME280;43896;48.178;11.578;2023-02-18T13:40:17;96255.13;;;15.85;47.19
58092;BME280;43896;48.178;11.578;2023-02-18T13:42:43;96254.66;;;15.81;47.20
58092;BME280;43896;48.178;11.578;2023-02-18T13:45:30;96264.84;;;15.69;47.59
58092;BME280;43896;48.178;11.578;2023-02-18T13:47:57;96246.50;;;15.45;48.16
58092;BME280;43896;48.178;11.578;2023-02-18T13:55:50;96274.31;;;15.03;49.47
58092;BME280;43896;48.178;11.578;2023-02-18T13:59:00;96246.00;;;15.03;49.51
58092;BME280;43896;48.178;11.578;2023-02-18T14:01:34;96253.53;;;14.91;49.25
58092;BME280;43896;48.178;11.578;2023-02-18T14:04:02;96234.88;;;14.45;50.23
58092;BME280;43896;48.178;11.578;2023-02-18T14:09:35;96243.28;;;14.88;49.27
58092;BME280;43896;48.178;11.578;2023-02-18T14:14:47;96233.00;;;14.62;49.30
58092;BME280;43896;48.178;11.578;2023-02-18T14:20:23;96255.66;;;14.56;49.47
58092;BME280;43896;48.178;11.578;2023-02-18T14:22:51;96248.81;;;14.39;49.96
58092;BME280;43896;48.178;11.578;2023-02-18T14:27:46;96247.47;;;14.35;50.50
58092;BME280;43896;48.178;11.578;2023-02-18T14:30:38;96216.78;;;14.17;50.42
58092;BME280;43896;48.178;11.578;2023-02-18T14:33:05;96245.16;;;14.32;50.32
58092;BME280;43896;48.178;11.578;2023-02-18T14:35:47;96246.81;;;14.33;50.46
58092;BME280;43896;48.178;11.578;2023-02-18T14:43:51;96251.84;;;14.19;50.78
58092;BME280;43896;48.178;11.578;2023-02-18T14:49:00;96267.34;;;14.31;50.65
58092;BME280;43896;48.178;11.578;2023-02-18T14:51:32;96242.84;;;14.37;50.51